MAPA DE AEROPUERTO

INFORMACIÓN METAR y TAF


Deprecated: The each() function is deprecated. This message will be suppressed on further calls in /home/customer/www/clickair-va.com/public_html/VAM/vam/helpers/get_metar.php on line 20
METAR FOR LXGB
ADDS - METARS form results

(0437 UTC 25 May 2022)
Data provider http://aviationweather.gov/metar/data/
 
METAR text: LXGB 250420Z AUTO 22012KT 9999 NCD 19/10 Q1014
Conditions at: LXGB (GIBRALTAR (CIV/M, GI) observed 0420 UTC 25 May 2022
Temperature: 19.0°C (66°F)
Dewpoint: 10.0°C (50°F) [RH = 56%]
Pressure (altimeter): 29.94 inches Hg (1014.0 mb)
Winds: from the SW (220 degrees) at 14 MPH (12 knots; 6.2 m/s)
Visibility: 6 or more miles (10+ km)
Ceiling: at least 12,000 feet AGL
Clouds: sky clear below 12,000 feet AGL
Weather: no significant weather observed at this time

METAR text: LXGB 250350Z 22010KT CAVOK 19/10 Q1014 RMK BLU
Conditions at: LXGB (GIBRALTAR (CIV/M, GI) observed 0350 UTC 25 May 2022
Temperature: 19.0°C (66°F)
Dewpoint: 10.0°C (50°F) [RH = 56%]
Pressure (altimeter): 29.94 inches Hg (1014.0 mb)
Winds: from the SW (220 degrees) at 12 MPH (10 knots; 5.1 m/s)
Visibility: 6 or more miles (10+ km)
Ceiling: ceiling and visibility are OK
Clouds: unknown
Weather: no significant weather observed at this time

Forecast for: LXGB (GIBRALTAR (CIV/M, GI)
Text: TAF LXGB 241645Z 2418/2422 27015KT 9999 FEW025
Forecast period: 1800 to 2200 UTC 24 May 2022
Forecast type: FROM: standard forecast or significant change
Winds: from the W (270 degrees) at 17 MPH (15 knots; 7.7 m/s)
Visibility: 6 or more miles (10+ km)
Ceiling: at least 12,000 feet AGL
Clouds: few clouds at 2500 feet AGL
Weather: no significant weather forecast for this period
Text: TEMPO 2418/2419 26018G28KT
Forecast period: 1800 to 1900 UTC 24 May 2022
Forecast type: TEMPORARY: The following changes expected for less than half the time period
Winds: from the W (260 degrees) at 21 MPH (18 knots; 9.3 m/s)
gusting to 32 MPH (28 knots; 14.4 m/s)
Visibility: missing
Ceiling: unknown
Clouds: missing
Weather: no significant weather forecast for this period